Time;durP1;ratioP1;P1;durP2;ratioP2;P2;SDS_P1;SDS_P2;PMS_P1;PMS_P2;Temp;Humidity;BMP_temperature;BMP_pressure;BME280_temperature;BME280_humidity;BME280_pressure;Samples;Min_cycle;Max_cycle;Signal;HPM_P1;HPM_P2
2022/12/31 00:01:32;;;;;;;1.50;1.10;;;;;;;7.25;97.32;100220.81;7398788;19;20026;-70
2022/12/31 00:04:01;;;;;;;1.63;1.20;;;;;;;7.25;97.60;100223.41;7401104;19;20419;-71
2022/12/31 00:06:32;;;;;;;1.40;1.10;;;;;;;7.25;97.84;100223.41;7399689;19;20022;-71
2022/12/31 00:09:02;;;;;;;2.08;1.55;;;;;;;7.25;97.85;100231.25;7401975;19;20459;-71
2022/12/31 00:11:34;;;;;;;5.28;1.80;;;;;;;7.25;97.95;100241.69;7401141;19;20377;-72
2022/12/31 00:14:03;;;;;;;3.17;1.65;;;;;;;7.26;97.93;100238.19;7398514;19;20356;-71
2022/12/31 00:16:35;;;;;;;2.03;1.10;;;;;;;7.26;97.85;100241.66;7399041;19;20091;-71
2022/12/31 00:19:03;;;;;;;1.75;1.17;;;;;;;7.26;98.24;100239.03;7401202;19;20356;-71
2022/12/31 00:21:34;;;;;;;1.73;1.33;;;;;;;7.27;97.69;100237.31;7398371;19;20039;-71
2022/12/31 00:24:03;;;;;;;1.30;1.20;;;;;;;7.29;98.31;100239.00;7401339;19;20074;-71
2022/12/31 00:26:36;;;;;;;1.73;1.27;;;;;;;7.29;98.17;100233.78;7397957;19;20022;-71
2022/12/31 00:29:06;;;;;;;3.30;2.25;;;;;;;7.31;98.36;100226.78;7401236;19;20018;-71
2022/12/31 00:31:36;;;;;;;2.53;1.85;;;;;;;7.33;98.33;100232.84;7397716;19;20074;-71
2022/12/31 00:34:13;;;;;;;1.38;1.08;;;;;;;7.37;98.17;100225.81;7398116;19;20074;-71
2022/12/31 00:36:42;;;;;;;1.48;0.90;;;;;;;7.41;98.25;100250.13;7398190;19;20575;-71
2022/12/31 00:39:12;;;;;;;1.58;0.88;;;;;;;7.44;98.41;100237.91;7400845;19;20041;-71
2022/12/31 00:41:44;;;;;;;0.57;0.57;;;;;;;7.50;98.04;100260.41;7401027;19;20087;-71
2022/12/31 00:44:13;;;;;;;0.65;0.60;;;;;;;7.56;97.67;100259.47;7400645;19;20018;-71
2022/12/31 00:46:41;;;;;;;1.13;0.80;;;;;;;7.59;98.04;100252.41;7398382;19;20510;-71
2022/12/31 00:49:10;;;;;;;1.17;0.68;;;;;;;7.64;98.19;100252.34;7398087;19;20019;-71
2022/12/31 00:51:39;;;;;;;0.98;0.90;;;;;;;7.68;97.85;100261.84;7400667;19;20082;-71
2022/12/31 00:54:08;;;;;;;1.45;0.70;;;;;;;7.72;97.59;100258.31;7400179;19;20505;-71
2022/12/31 00:56:37;;;;;;;1.05;0.73;;;;;;;7.76;97.64;100277.38;7397528;19;20423;-71
2022/12/31 00:59:08;;;;;;;1.35;0.80;;;;;;;7.76;97.55;100257.34;7400462;19;20018;-71
2022/12/31 01:01:38;;;;;;;1.02;0.75;;;;;;;7.79;97.25;100267.72;7400808;19;20082;-71
2022/12/31 01:04:09;;;;;;;1.00;0.68;;;;;;;7.82;96.98;100278.13;7398233;19;20015;-71
2022/12/31 01:06:38;;;;;;;1.35;0.82;;;;;;;7.86;97.22;100286.78;7397601;19;20014;-71
2022/12/31 01:09:07;;;;;;;1.17;0.70;;;;;;;7.90;97.36;100287.56;7400105;19;20085;-72
2022/12/31 01:11:36;;;;;;;2.63;0.73;;;;;;;7.92;97.36;100286.69;7400057;19;20015;-72
2022/12/31 01:14:09;;;;;;;0.82;0.73;;;;;;;7.97;97.44;100291.78;7397377;19;20015;-72
2022/12/31 01:16:41;;;;;;;0.93;0.70;;;;;;;7.99;97.21;100287.41;7398462;19;20102;-71
2022/12/31 01:19:11;;;;;;;1.02;0.63;;;;;;;7.99;96.80;100285.66;7400169;19;20419;-72
2022/12/31 01:21:41;;;;;;;0.88;0.70;;;;;;;8.07;97.37;100295.97;7399423;19;20015;-71
2022/12/31 01:24:11;;;;;;;0.70;0.60;;;;;;;8.11;97.02;100286.31;7399947;19;20391;-72
2022/12/31 01:26:41;;;;;;;1.20;0.90;;;;;;;8.14;97.41;100284.50;7398168;19;20524;-71
2022/12/31 01:29:13;;;;;;;0.57;0.50;;;;;;;8.17;97.08;100286.19;7399083;19;20086;-72
2022/12/31 01:31:42;;;;;;;1.10;0.65;;;;;;;8.20;97.57;100291.38;7399805;19;20074;-71
2022/12/31 01:34:11;;;;;;;2.67;0.98;;;;;;;8.22;97.08;100292.19;7396412;19;20015;-72
2022/12/31 01:36:40;;;;;;;0.95;0.52;;;;;;;8.25;97.42;100296.50;7397106;19;20027;-71
2022/12/31 01:39:10;;;;;;;1.52;0.73;;;;;;;8.26;97.78;100293.84;7399071;19;20085;-70
2022/12/31 01:41:40;;;;;;;1.17;0.60;;;;;;;8.28;97.85;100296.47;7398891;19;20090;-70
2022/12/31 01:44:39;;;;;;;1.15;0.40;;;;;;;8.30;97.84;100299.88;7398860;19;20069;-71
2022/12/31 01:47:17;;;;;;;0.80;0.47;;;;;;;8.31;97.64;100293.78;7396234;19;20022;-71
2022/12/31 01:49:49;;;;;;;0.85;0.63;;;;;;;8.32;97.47;100282.44;7397677;19;20014;-71
2022/12/31 01:52:22;;;;;;;0.95;0.52;;;;;;;8.31;97.63;100292.03;7398861;19;20022;-71
2022/12/31 01:54:57;;;;;;;1.10;0.40;;;;;;;8.32;97.89;100298.97;7398918;19;20022;-71
2022/12/31 01:57:27;;;;;;;0.47;0.40;;;;;;;8.33;97.99;100305.06;7398149;19;20098;-71
2022/12/31 01:59:57;;;;;;;0.50;0.35;;;;;;;8.36;98.19;100309.38;7398015;19;20027;-70
2022/12/31 02:02:28;;;;;;;0.57;0.50;;;;;;;8.35;98.06;100307.66;7395966;19;20038;-71
2022/12/31 02:05:01;;;;;;;0.38;0.25;;;;;;;8.38;98.07;100308.44;7395896;19;20023;-71
2022/12/31 02:07:29;;;;;;;0.68;0.40;;;;;;;8.41;97.54;100313.59;7397079;19;20054;-71
2022/12/31 02:09:58;;;;;;;1.25;0.30;;;;;;;8.42;97.82;100310.09;7397966;19;20083;-71
2022/12/31 02:12:33;;;;;;;0.70;0.43;;;;;;;8.46;97.52;100313.56;7397832;19;20499;-70
2022/12/31 02:15:01;;;;;;;0.40;0.40;;;;;;;8.49;97.90;100313.47;7396545;19;20074;-70
2022/12/31 02:17:40;;;;;;;1.50;0.38;;;;;;;8.52;97.39;100313.44;7395477;19;20509;-70
2022/12/31 02:20:40;;;;;;;1.20;0.90;;;;;;;8.55;97.52;100302.06;7398105;19;20166;-70
2022/12/31 02:23:28;;;;;;;1.85;0.85;;;;;;;8.57;97.58;100298.50;7398137;19;20031;-70
2022/12/31 02:26:20;;;;;;;1.17;0.80;;;;;;;8.60;97.28;100301.06;7396006;19;20070;-69
2022/12/31 02:29:24;;;;;;;1.13;0.77;;;;;;;8.64;97.60;100300.13;7395758;19;20417;-69
2022/12/31 02:32:00;;;;;;;2.72;1.15;;;;;;;8.66;97.54;100312.28;7396376;19;20094;-69
2022/12/31 02:34:34;;;;;;;0.68;0.43;;;;;;;8.69;97.25;100317.47;7395872;19;20070;-70
2022/12/31 02:37:05;;;;;;;;;;;;;;;8.72;96.63;100306.91;7396380;19;20023;-69
2022/12/31 02:39:35;;;;;;;0.47;0.32;;;;;;;8.73;96.61;100309.53;7395119;19;20342;-70
2022/12/31 02:42:04;;;;;;;1.83;1.00;;;;;;;8.79;97.01;100303.28;7397072;19;20078;-69
2022/12/31 02:44:35;;;;;;;0.98;0.63;;;;;;;8.82;96.73;100307.59;7397031;19;20014;-70
2022/12/31 02:47:20;;;;;;;3.35;1.50;;;;;;;8.85;96.24;100308.41;7394874;19;20077;-69
2022/12/31 02:50:03;;;;;;;0.80;0.60;;;;;;;8.91;97.03;100302.16;7396424;19;20083;-70
2022/12/31 02:52:42;;;;;;;1.52;0.40;;;;;;;8.95;97.24;100295.97;7396760;19;20015;-70
2022/12/31 02:55:23;;;;;;;0.90;0.40;;;;;;;9.00;96.32;100309.81;7396091;19;20073;-70
2022/12/31 02:57:59;;;;;;;0.50;0.30;;;;;;;9.03;96.86;100308.88;7396903;19;20018;-70
2022/12/31 03:03:13;;;;;;;0.57;0.35;;;;;;;9.12;96.66;100298.19;7396478;19;20006;-70
2022/12/31 03:05:45;;;;;;;0.40;0.40;;;;;;;9.16;96.18;100302.47;7396005;19;20078;-69
2022/12/31 03:08:13;;;;;;;0.30;0.30;;;;;;;9.21;96.29;100304.97;7394923;19;20039;-69
2022/12/31 03:10:41;;;;;;;0.60;0.30;;;;;;;9.24;96.27;100300.53;7396115;19;20086;-69
2022/12/31 03:13:07;;;;;;;0.43;0.28;;;;;;;9.28;96.38;100296.94;7395660;19;20512;-69
2022/12/31 03:15:37;;;;;;;0.63;0.50;;;;;;;9.31;96.18;100296.00;7394983;19;20014;-69
2022/12/31 03:18:08;;;;;;;0.85;0.40;;;;;;;9.35;96.51;100297.69;7395502;19;20014;-69
2022/12/31 03:23:26;;;;;;;0.28;0.25;;;;;;;9.40;96.08;100290.59;7395898;19;20010;-69
2022/12/31 03:25:53;;;;;;;0.40;0.30;;;;;;;9.44;96.54;100294.00;7392708;19;20078;-69
2022/12/31 03:28:24;;;;;;;1.15;0.30;;;;;;;9.46;96.36;100292.19;7394614;19;20424;-69
2022/12/31 03:30:56;;;;;;;1.17;0.30;;;;;;;9.48;96.10;100290.38;7395221;19;20031;-69
2022/12/31 03:33:26;;;;;;;0.40;0.30;;;;;;;9.50;96.21;100285.94;7394185;19;20078;-69
2022/12/31 03:35:57;;;;;;;0.40;0.40;;;;;;;9.52;95.82;100285.94;7394617;19;20077;-69
2022/12/31 03:38:25;;;;;;;1.13;0.50;;;;;;;9.55;96.33;100278.00;7395711;19;20074;-69
2022/12/31 03:40:55;;;;;;;0.40;0.25;;;;;;;9.58;96.43;100283.19;7394809;19;20082;-69
2022/12/31 03:43:24;;;;;;;0.35;0.35;;;;;;;9.60;96.31;100268.25;7393409;19;20031;-69
2022/12/31 03:45:54;;;;;;;0.52;0.30;;;;;;;9.62;96.13;100279.56;7394065;19;20098;-69
2022/12/31 03:48:23;;;;;;;0.98;0.47;;;;;;;9.64;96.05;100269.06;7394066;19;20089;-69
2022/12/31 03:51:01;;;;;;;0.40;0.30;;;;;;;9.66;95.55;100262.88;7393300;19;20039;-69
2022/12/31 03:53:30;;;;;;;0.50;0.40;;;;;;;9.70;96.14;100255.78;7395144;19;20074;-69
2022/12/31 03:55:59;;;;;;;1.35;0.22;;;;;;;9.74;96.75;100260.03;7392970;19;20019;-69
2022/12/31 03:58:27;;;;;;;0.82;0.30;;;;;;;9.76;96.07;100247.78;7394930;19;20074;-69
2022/12/31 04:00:56;;;;;;;0.90;0.30;;;;;;;9.79;96.50;100263.41;7394739;19;20086;-70
2022/12/31 04:03:24;;;;;;;0.30;0.20;;;;;;;9.80;96.39;100264.28;7394378;19;20087;-70
2022/12/31 04:05:56;;;;;;;0.32;0.20;;;;;;;9.83;95.83;100243.22;7392638;19;20418;-70
2022/12/31 04:08:27;;;;;;;0.43;0.40;;;;;;;9.86;96.33;100249.25;7393303;19;20584;-70
2022/12/31 04:10:55;;;;;;;0.82;0.38;;;;;;;9.90;95.56;100256.13;7392772;19;20086;-70
2022/12/31 04:13:24;;;;;;;0.38;0.25;;;;;;;9.93;96.05;100252.56;7392534;19;20077;-70
2022/12/31 04:15:53;;;;;;;0.20;0.20;;;;;;;9.97;95.53;100250.72;7393173;19;20432;-70
2022/12/31 04:18:21;;;;;;;0.30;0.30;;;;;;;10.02;95.88;100247.09;7393894;19;20011;-70
2022/12/31 04:20:50;;;;;;;0.40;0.40;;;;;;;10.07;96.31;100254.81;7392262;19;20014;-70
2022/12/31 04:23:18;;;;;;;0.30;0.20;;;;;;;10.10;96.10;100252.13;7394200;19;20074;-70
2022/12/31 04:25:49;;;;;;;0.50;0.30;;;;;;;10.14;96.05;100245.88;7392010;19;20035;-70
2022/12/31 04:28:18;;;;;;;0.45;0.20;;;;;;;10.18;95.85;100244.88;7393677;19;20074;-70
2022/12/31 04:30:46;;;;;;;0.13;0.13;;;;;;;10.23;96.47;100245.59;7393647;19;20465;-69
2022/12/31 04:33:15;;;;;;;0.40;0.30;;;;;;;10.28;96.17;100242.88;7392660;19;20074;-70
2022/12/31 04:35:43;;;;;;;0.20;0.20;;;;;;;10.32;96.16;100235.78;7393108;19;20086;-70
2022/12/31 04:38:12;;;;;;;0.35;0.25;;;;;;;10.35;96.53;100233.03;7398580;19;20485;-69
2022/12/31 04:41:15;;;;;;;0.70;0.22;;;;;;;10.40;96.73;100254.78;7398423;19;20078;-70
2022/12/31 04:43:32;;;;;;;0.40;0.30;;;;;;;10.41;96.45;100246.91;7400386;19;20007;-69
2022/12/31 04:46:00;;;;;;;1.55;0.20;;;;;;;10.46;96.04;100243.28;7399587;19;20039;-70
2022/12/31 04:48:29;;;;;;;0.52;0.28;;;;;;;10.50;96.46;100248.41;7397749;19;20081;-70
2022/12/31 04:50:57;;;;;;;0.30;0.25;;;;;;;10.52;96.90;100229.97;7398140;19;20027;-69
2022/12/31 04:53:26;;;;;;;1.08;0.50;;;;;;;10.54;97.17;100230.78;7399981;19;20022;-71
2022/12/31 04:55:54;;;;;;;1.85;0.30;;;;;;;10.55;97.14;100230.75;7397909;19;20023;-70
2022/12/31 04:58:23;;;;;;;0.32;0.25;;;;;;;10.55;97.65;100227.25;7400156;19;20082;-69
2022/12/31 05:00:55;;;;;;;0.50;0.25;;;;;;;10.57;97.48;100233.31;7400041;19;20485;-70
2022/12/31 05:03:26;;;;;;;0.40;0.30;;;;;;;10.59;97.85;100226.28;7397530;19;20515;-69
2022/12/31 05:05:55;;;;;;;0.20;0.20;;;;;;;10.61;97.89;100213.94;7399538;19;20014;-69
2022/12/31 05:08:23;;;;;;;0.30;0.30;;;;;;;10.63;97.77;100212.16;7399260;19;20086;-69
2022/12/31 05:10:52;;;;;;;0.20;0.20;;;;;;;10.65;97.93;100215.56;7399743;19;20091;-69
2022/12/31 05:13:20;;;;;;;0.40;0.20;;;;;;;10.68;97.77;100212.88;7401041;19;20035;-68
2022/12/31 05:15:49;;;;;;;0.55;0.38;;;;;;;10.69;98.28;100206.72;7398969;19;20081;-69
2022/12/31 05:18:21;;;;;;;0.50;0.30;;;;;;;10.72;97.75;100205.78;7399766;19;20023;-69
2022/12/31 05:20:50;;;;;;;0.25;0.25;;;;;;;10.73;98.01;100200.47;7400167;19;20091;-69
2022/12/31 05:23:20;;;;;;;0.75;0.30;;;;;;;10.71;98.45;100199.66;7399421;19;20430;-69
2022/12/31 05:25:49;;;;;;;0.30;0.20;;;;;;;10.76;97.97;100189.84;7396862;19;20553;-70
2022/12/31 05:28:25;;;;;;;0.30;0.30;;;;;;;10.75;97.98;100192.53;7398951;19;20074;-69
2022/12/31 05:30:53;;;;;;;0.65;0.40;;;;;;;10.81;98.21;100191.50;7399260;19;20101;-69
2022/12/31 05:33:24;;;;;;;1.20;0.40;;;;;;;10.82;97.71;100195.84;7396653;19;20078;-69
2022/12/31 05:35:53;;;;;;;1.08;0.30;;;;;;;10.87;97.47;100191.31;7397334;19;20036;-69
2022/12/31 05:38:22;;;;;;;0.73;0.30;;;;;;;10.91;97.87;100193.78;7399228;19;20018;-69
2022/12/31 05:40:50;;;;;;;1.20;0.20;;;;;;;10.95;97.13;100188.44;7398822;19;20506;-69
2022/12/31 05:43:18;;;;;;;0.20;0.20;;;;;;;10.99;96.88;100188.28;7399086;19;20018;-70
2022/12/31 05:45:47;;;;;;;0.60;0.32;;;;;;;11.04;96.72;100177.63;7396680;19;20410;-69
2022/12/31 05:48:15;;;;;;;0.20;0.20;;;;;;;11.08;96.81;100179.25;7397224;19;20078;-69
2022/12/31 05:50:46;;;;;;;1.55;0.30;;;;;;;11.12;96.36;100180.88;7395697;19;20497;-69
2022/12/31 05:53:15;;;;;;;3.10;0.30;;;;;;;11.16;96.58;100174.59;7398359;19;20089;-70
2022/12/31 05:55:43;;;;;;;0.47;0.30;;;;;;;11.19;96.19;100177.13;7397886;19;20094;-69
2022/12/31 05:58:12;;;;;;;0.20;0.20;;;;;;;11.21;95.23;100161.34;7396086;19;20497;-69
2022/12/31 06:00:40;;;;;;;0.20;0.17;;;;;;;11.25;95.75;100162.94;7398439;19;20018;-70
2022/12/31 06:03:09;;;;;;;0.77;0.20;;;;;;;11.28;94.74;100167.22;7398397;19;20082;-70
2022/12/31 06:05:41;;;;;;;0.40;0.30;;;;;;;11.30;94.87;100170.66;7397239;19;20426;-69
2022/12/31 06:08:13;;;;;;;0.40;0.20;;;;;;;11.33;94.74;100168.78;7395820;19;20548;-69
2022/12/31 06:10:42;;;;;;;0.20;0.20;;;;;;;11.36;95.29;100173.06;7396596;19;20014;-68
2022/12/31 06:13:10;;;;;;;0.55;0.38;;;;;;;11.38;94.43;100171.25;7397969;19;20077;-69
2022/12/31 06:15:40;;;;;;;0.40;0.25;;;;;;;11.40;95.50;100172.91;7396975;19;20090;-69
2022/12/31 06:18:09;;;;;;;0.68;0.20;;;;;;;11.44;94.82;100172.78;7397785;19;20037;-69
2022/12/31 06:20:38;;;;;;;0.20;0.20;;;;;;;11.47;94.95;100162.19;7397466;19;20086;-70
2022/12/31 06:23:07;;;;;;;0.22;0.22;;;;;;;11.49;93.88;100161.22;7397373;19;20094;-70
2022/12/31 06:25:38;;;;;;;0.20;0.20;;;;;;;11.54;94.28;100171.59;7397079;19;20026;-70
2022/12/31 06:28:07;;;;;;;0.50;0.30;;;;;;;11.56;94.11;100173.25;7396007;19;20074;-70
2022/12/31 06:30:36;;;;;;;0.32;0.20;;;;;;;11.62;94.62;100181.84;7397355;19;20091;-69
2022/12/31 06:33:17;;;;;;;0.20;0.20;;;;;;;11.62;94.38;100182.66;7395215;19;20093;-70
2022/12/31 06:36:04;;;;;;;0.45;0.30;;;;;;;11.65;94.02;100176.44;7392510;19;20065;-69
2022/12/31 06:38:36;;;;;;;0.38;0.30;;;;;;;11.67;94.00;100185.16;7397337;19;20101;-69
2022/12/31 06:41:09;;;;;;;0.60;0.35;;;;;;;11.70;94.51;100182.41;7397499;19;20073;-69
2022/12/31 06:43:38;;;;;;;0.90;0.60;;;;;;;11.72;94.58;100186.69;7397445;19;20039;-69
2022/12/31 06:46:08;;;;;;;1.20;0.93;;;;;;;11.75;94.50;100177.84;7394611;19;20411;-69
2022/12/31 06:48:37;;;;;;;1.40;0.55;;;;;;;11.81;93.43;100171.53;7396303;19;20094;-69
2022/12/31 06:51:07;;;;;;;1.17;1.00;;;;;;;11.85;93.58;100175.75;7396406;19;20481;-69
2022/12/31 06:53:36;;;;;;;1.27;0.82;;;;;;;11.92;93.99;100176.38;7396747;19;20019;-69
2022/12/31 06:56:10;;;;;;;0.80;0.40;;;;;;;11.95;93.68;100179.75;7394935;19;20031;-69
2022/12/31 06:58:39;;;;;;;1.60;0.40;;;;;;;11.99;92.48;100177.91;7396670;19;20026;-69
2022/12/31 07:01:29;;;;;;;0.63;0.47;;;;;;;12.04;93.09;100173.31;7394141;19;20028;-70
2022/12/31 07:04:04;;;;;;;0.57;0.38;;;;;;;12.10;93.89;100170.47;7395134;19;20011;-69
2022/12/31 07:06:38;;;;;;;1.20;0.52;;;;;;;12.14;93.62;100173.84;7395148;19;20035;-69
2022/12/31 07:09:15;;;;;;;1.02;0.40;;;;;;;12.16;92.71;100166.78;7395233;19;20078;-70
2022/12/31 07:11:58;;;;;;;2.05;0.80;;;;;;;12.18;91.88;100168.44;7394645;19;20015;-70
2022/12/31 07:14:35;;;;;;;0.75;0.50;;;;;;;12.21;92.40;100155.16;7396429;19;20023;-70
2022/12/31 07:17:10;;;;;;;1.75;1.08;;;;;;;12.24;92.35;100154.19;7394562;19;20018;-70
2022/12/31 07:19:51;;;;;;;1.02;0.50;;;;;;;12.26;92.00;100148.84;7395582;19;20075;-70
2022/12/31 07:22:20;;;;;;;2.15;1.00;;;;;;;12.28;92.31;100157.56;7395350;19;20545;-70
2022/12/31 07:24:50;;;;;;;1.58;0.90;;;;;;;12.29;91.60;100167.16;7395657;19;20086;-70
2022/12/31 07:27:35;;;;;;;1.73;0.85;;;;;;;12.31;89.80;100160.06;7393423;19;20481;-70
2022/12/31 07:30:11;;;;;;;1.35;0.80;;;;;;;12.32;91.72;100178.44;7394757;19;20086;-68
2022/12/31 07:33:12;;;;;;;1.20;0.80;;;;;;;12.34;90.24;100184.47;7395442;19;20074;-70
2022/12/31 07:35:50;;;;;;;1.27;0.60;;;;;;;12.37;92.03;100178.22;7393499;19;20039;-70
2022/12/31 07:38:26;;;;;;;2.47;1.10;;;;;;;12.37;91.75;100170.34;7395716;19;20026;-69
2022/12/31 07:41:03;;;;;;;1.05;0.75;;;;;;;12.39;90.82;100174.63;7395716;19;20022;-71
2022/12/31 07:43:38;;;;;;;0.30;0.20;;;;;;;12.40;90.57;100170.25;7394811;19;20501;-70
2022/12/31 07:46:15;;;;;;;0.38;0.30;;;;;;;12.44;90.92;100181.50;7393442;19;20022;-69
2022/12/31 07:48:44;;;;;;;1.73;0.50;;;;;;;12.48;90.68;100181.31;7395114;19;20078;-69
2022/12/31 07:51:14;;;;;;;0.35;0.30;;;;;;;12.53;91.19;100181.97;7394981;19;20082;-69
2022/12/31 07:53:42;;;;;;;0.50;0.30;;;;;;;12.58;90.94;100187.06;7395060;19;20073;-70
2022/12/31 07:56:11;;;;;;;0.60;0.40;;;;;;;12.60;90.81;100189.66;7393191;19;20028;-70
2022/12/31 07:58:53;;;;;;;0.60;0.30;;;;;;;12.65;90.27;100188.56;7394900;19;20019;-69
2022/12/31 08:01:36;;;;;;;7.53;0.43;;;;;;;12.71;89.87;100201.47;7392929;19;20087;-70
2022/12/31 08:04:09;;;;;;;0.50;0.25;;;;;;;12.76;88.89;100189.91;7392678;19;20031;-71
2022/12/31 08:06:47;;;;;;;0.53;0.30;;;;;;;12.81;89.99;100194.06;7392429;19;20381;-70
2022/12/31 08:09:31;;;;;;;0.40;0.25;;;;;;;12.87;89.05;100190.34;7394274;19;20075;-70
2022/12/31 08:12:01;;;;;;;0.95;0.40;;;;;;;12.93;90.62;100194.47;7396476;19;20077;-70
2022/12/31 08:14:44;;;;;;;2.88;1.50;;;;;;;12.97;88.48;100198.72;7402016;19;20026;-69
2022/12/31 08:17:15;;;;;;;1.58;0.95;;;;;;;13.02;89.95;100197.59;7399173;19;20015;-69
2022/12/31 08:19:45;;;;;;;3.28;1.98;;;;;;;13.07;89.71;100197.44;7399290;19;20031;-69
2022/12/31 08:22:36;;;;;;;1.63;0.68;;;;;;;13.09;87.30;100192.09;7401715;19;20022;-70
2022/12/31 08:25:16;;;;;;;1.50;0.90;;;;;;;13.14;89.53;100198.91;7398709;19;20007;-68
2022/12/31 08:27:52;;;;;;;0.60;0.35;;;;;;;13.16;88.98;100191.78;7399077;19;20073;-68
2022/12/31 08:30:25;;;;;;;3.45;1.42;;;;;;;13.19;89.23;100202.19;7399665;19;20025;-69
2022/12/31 08:33:04;;;;;;;7.95;3.08;;;;;;;13.22;87.07;100200.34;7400775;19;20018;-70
2022/12/31 08:35:48;;;;;;;2.10;1.30;;;;;;;13.26;88.04;100212.50;7400644;19;20357;-69
2022/12/31 08:38:27;;;;;;;3.50;1.45;;;;;;;13.29;86.98;100214.97;7400765;19;20517;-69
2022/12/31 08:41:05;;;;;;;2.95;0.73;;;;;;;13.33;87.33;100208.66;7401321;19;20022;-68
2022/12/31 08:43:52;;;;;;;2.55;0.90;;;;;;;13.35;85.07;100201.56;7401001;19;20078;-68
2022/12/31 08:46:29;;;;;;;0.80;0.50;;;;;;;13.40;87.85;100210.16;7399273;19;20014;-69
2022/12/31 08:48:58;;;;;;;0.57;0.40;;;;;;;13.43;86.58;100217.06;7398358;19;20022;-70
2022/12/31 08:51:28;;;;;;;1.45;0.38;;;;;;;13.46;86.67;100207.25;7400448;19;20081;-69
2022/12/31 08:53:57;;;;;;;0.88;0.30;;;;;;;13.55;86.75;100224.47;7397962;19;20022;-69
2022/12/31 08:56:33;;;;;;;0.60;0.40;;;;;;;13.60;86.17;100225.13;7398923;19;20074;-69
2022/12/31 08:59:22;;;;;;;1.75;0.55;;;;;;;13.65;82.68;100214.41;7400244;19;20380;-68
2022/12/31 09:02:18;;;;;;;1.30;0.77;;;;;;;13.73;83.35;100219.34;7398358;19;20082;-69
2022/12/31 09:04:56;;;;;;;0.63;0.45;;;;;;;13.79;81.74;100219.91;7399933;19;20512;-70
2022/12/31 09:07:39;;;;;;;0.57;0.50;;;;;;;13.88;82.15;100225.72;7400436;19;20078;-69
2022/12/31 09:10:19;;;;;;;0.73;0.38;;;;;;;13.93;81.42;100229.00;7399167;19;20090;-69
2022/12/31 09:12:56;;;;;;;0.50;0.30;;;;;;;13.99;82.15;100228.75;7397753;19;20018;-69
2022/12/31 09:15:33;;;;;;;0.90;0.57;;;;;;;14.03;81.96;100235.59;7397925;19;20035;-69
2022/12/31 09:18:04;;;;;;;0.70;0.30;;;;;;;14.08;81.77;100243.28;7400472;19;20021;-68
2022/12/31 09:20:35;;;;;;;1.27;0.50;;;;;;;14.13;82.67;100242.16;7397072;19;20074;-68
2022/12/31 09:23:05;;;;;;;0.63;0.40;;;;;;;14.18;83.67;100258.63;7398645;19;20022;-69
2022/12/31 09:25:34;;;;;;;2.08;1.00;;;;;;;14.20;80.08;100260.34;7397851;19;20078;-69
2022/12/31 09:28:13;;;;;;;0.73;0.73;;;;;;;14.22;81.73;100259.38;7396705;19;20498;-69
2022/12/31 09:30:49;;;;;;;3.60;2.25;;;;;;;14.25;81.63;100267.13;7398193;19;20078;-70
2022/12/31 09:33:41;;;;;;;0.75;0.50;;;;;;;14.28;80.15;100242.38;7397451;19;20098;-70
2022/12/31 09:36:13;;;;;;;0.80;0.50;;;;;;;14.32;82.67;100254.53;7397199;19;20365;-69
2022/12/31 09:38:52;;;;;;;1.73;0.60;;;;;;;14.32;79.66;100257.19;7396903;19;20015;-69
2022/12/31 09:41:44;;;;;;;1.75;0.50;;;;;;;14.35;78.66;100259.66;7397241;19;20038;-70
2022/12/31 09:44:54;;;;;;;0.70;0.30;;;;;;;14.39;79.73;100253.31;7398542;19;20514;-69
2022/12/31 09:48:09;;;;;;;0.65;0.65;;;;;;;14.43;79.05;100247.00;7399364;19;20025;-69
2022/12/31 09:50:55;;;;;;;1.70;0.32;;;;;;;14.46;78.82;100246.00;7394167;19;20402;-69
2022/12/31 09:53:48;;;;;;;0.80;0.40;;;;;;;14.50;78.03;100250.19;7398293;19;20488;-68
2022/12/31 09:56:24;;;;;;;1.15;0.50;;;;;;;14.54;78.56;100245.63;7397599;19;20039;-69
2022/12/31 09:59:03;;;;;;;0.88;0.50;;;;;;;14.58;78.24;100257.75;7398083;19;20444;-69
2022/12/31 10:01:44;;;;;;;1.63;0.40;;;;;;;14.63;79.29;100258.41;7399151;19;20497;-69
2022/12/31 10:04:36;;;;;;;1.23;0.35;;;;;;;14.69;78.72;100250.22;7396680;19;20031;-69
2022/12/31 10:07:20;;;;;;;2.03;0.43;;;;;;;14.73;78.60;100235.94;7396550;19;20067;-68
2022/12/31 10:10:18;;;;;;;0.77;0.43;;;;;;;14.80;79.03;100233.88;7397238;19;20518;-69
2022/12/31 10:13:10;;;;;;;0.82;0.50;;;;;;;14.87;77.58;100232.66;7397432;19;20102;-68
2022/12/31 10:16:16;;;;;;;4.63;0.77;;;;;;;14.93;77.19;100236.78;7397039;19;20362;-68
2022/12/31 10:19:01;;;;;;;0.35;0.25;;;;;;;15.00;78.60;100243.50;7395570;19;20509;-69
2022/12/31 10:21:38;;;;;;;3.47;0.43;;;;;;;15.04;78.07;100234.50;7397413;19;20078;-70
2022/12/31 10:24:25;;;;;;;0.85;0.43;;;;;;;15.09;77.55;100240.41;7397825;19;20022;-69
2022/12/31 10:27:12;;;;;;;1.98;0.40;;;;;;;15.13;78.00;100241.97;7395637;19;20081;-70
2022/12/31 10:29:48;;;;;;;1.52;0.50;;;;;;;15.15;77.88;100242.75;7395945;19;20035;-69
2022/12/31 10:32:20;;;;;;;2.65;0.50;;;;;;;15.18;79.45;100246.16;7397698;19;20014;-70
2022/12/31 10:35:14;;;;;;;1.02;0.40;;;;;;;15.22;76.35;100253.03;7396438;19;20090;-70
2022/12/31 10:37:48;;;;;;;1.23;0.43;;;;;;;15.24;78.80;100246.72;7395408;19;20508;-70
2022/12/31 10:40:26;;;;;;;;;;;;;;;15.27;75.82;100262.41;7398152;19;20066;-69
2022/12/31 10:43:21;;;;;;;1.50;0.73;;;;;;;15.28;76.33;100243.00;7396608;19;20330;-68
2022/12/31 10:46:20;;;;;;;1.02;0.40;;;;;;;15.32;75.37;100273.63;7397976;19;20532;-68
2022/12/31 10:49:36;;;;;;;1.42;0.50;;;;;;;15.38;75.34;100261.91;7396828;19;20028;-69
2022/12/31 10:52:58;;;;;;;0.57;0.50;;;;;;;15.45;75.03;100265.94;7397913;19;20010;-69
2022/12/31 10:56:05;;;;;;;1.00;0.55;;;;;;;15.52;74.01;100257.69;7395099;19;20082;-69
2022/12/31 10:59:02;;;;;;;1.35;0.73;;;;;;;15.59;73.92;100269.69;7395893;19;20534;-69
2022/12/31 11:01:43;;;;;;;0.70;0.30;;;;;;;15.66;76.70;100273.75;7395079;19;20541;-70
2022/12/31 11:04:45;;;;;;;0.93;0.30;;;;;;;15.75;75.97;100272.41;7395859;19;20082;-69
2022/12/31 11:07:48;;;;;;;1.70;0.65;;;;;;;15.84;74.21;100271.13;7395449;19;20018;-69
2022/12/31 11:10:43;;;;;;;0.98;0.70;;;;;;;15.92;73.84;100271.56;7395774;19;20018;-70
2022/12/31 11:13:53;;;;;;;1.42;0.55;;;;;;;16.00;72.09;100274.69;7395797;19;20073;-69
2022/12/31 11:16:58;;;;;;;0.82;0.40;;;;;;;16.10;71.84;100267.97;7393265;19;20537;-70
2022/12/31 11:19:33;;;;;;;2.25;0.40;;;;;;;16.21;74.62;100262.09;7397631;19;20022;-69
2022/12/31 11:22:20;;;;;;;1.50;0.50;;;;;;;16.26;71.53;100270.69;7395649;19;20031;-69
2022/12/31 11:25:05;;;;;;;0.75;0.30;;;;;;;16.30;71.34;100271.34;7396481;19;20082;-69
2022/12/31 11:27:51;;;;;;;1.02;0.50;;;;;;;16.33;70.99;100257.09;7395959;19;20031;-69
2022/12/31 11:30:24;;;;;;;1.58;0.40;;;;;;;16.34;71.57;100264.09;7397056;19;20081;-69
2022/12/31 11:33:18;;;;;;;2.28;0.73;;;;;;;16.37;71.39;100258.66;7397292;19;20500;-69
2022/12/31 11:36:04;;;;;;;1.27;0.55;;;;;;;16.40;70.76;100264.66;7395084;19;20027;-69
2022/12/31 11:38:39;;;;;;;1.20;0.73;;;;;;;16.45;69.54;100275.84;7397071;19;20031;-69
2022/12/31 11:41:12;;;;;;;2.78;1.42;;;;;;;16.52;72.88;100267.56;7397664;19;20086;-70
2022/12/31 11:43:51;;;;;;;2.40;0.60;;;;;;;16.54;72.39;100266.56;7397241;19;20031;-69
2022/12/31 11:46:41;;;;;;;2.50;0.60;;;;;;;16.57;69.68;100262.88;7395344;19;20541;-69
2022/12/31 11:49:33;;;;;;;2.75;0.68;;;;;;;16.59;69.80;100276.88;7403581;19;20033;-70
2022/12/31 11:52:21;;;;;;;1.02;0.50;;;;;;;16.61;70.43;100264.41;7401426;19;20018;-70
2022/12/31 11:55:10;;;;;;;1.17;0.60;;;;;;;16.64;69.07;100266.88;7402232;19;20018;-70
2022/12/31 11:57:41;;;;;;;1.17;0.50;;;;;;;16.68;69.91;100276.41;7405223;19;20036;-69
2022/12/31 12:00:18;;;;;;;1.00;0.65;;;;;;;16.69;69.31;100269.28;7403926;19;20085;-69
2022/12/31 12:02:49;;;;;;;1.27;0.57;;;;;;;16.72;71.59;100274.41;7404148;19;20017;-69
2022/12/31 12:05:23;;;;;;;1.20;0.50;;;;;;;16.72;69.53;100272.63;7403415;19;20047;-69
2022/12/31 12:07:53;;;;;;;2.05;0.52;;;;;;;16.73;70.53;100262.88;7404241;19;20022;-68
2022/12/31 12:10:26;;;;;;;0.93;0.40;;;;;;;16.73;69.48;100266.41;7403411;19;20031;-70
2022/12/31 12:12:56;;;;;;;3.60;0.70;;;;;;;16.75;70.86;100253.91;7405060;19;20035;-69
2022/12/31 12:15:33;;;;;;;1.90;0.75;;;;;;;16.76;68.31;100250.31;7400564;19;20019;-70